createdAt,value
2019-06-26T00:00:23.285Z,24.86
2019-06-26T00:02:55.430Z,24.44
2019-06-26T00:05:27.407Z,24.14
2019-06-26T00:07:59.452Z,23.90
2019-06-26T00:10:31.348Z,26.17
2019-06-26T00:13:04.731Z,26.89
2019-06-26T00:15:36.730Z,25.97
2019-06-26T00:18:08.831Z,25.23
2019-06-26T00:20:40.798Z,24.70
2019-06-26T00:23:12.766Z,24.28
2019-06-26T00:25:44.694Z,23.97
2019-06-26T00:28:16.777Z,23.72
2019-06-26T00:30:48.768Z,25.97
2019-06-26T00:33:20.749Z,26.72
2019-06-26T00:35:53.065Z,25.83
2019-06-26T00:38:25.147Z,25.06
2019-06-26T00:40:57.058Z,24.50
2019-06-26T00:43:42.062Z,24.11
2019-06-26T00:46:09.055Z,23.79
2019-06-26T00:48:41.467Z,26.21
2019-06-26T00:51:13.446Z,26.92
2019-06-26T00:53:45.342Z,25.95
2019-06-26T00:56:17.289Z,25.18
2019-06-26T00:58:49.485Z,24.57
2019-06-26T01:01:21.466Z,24.14
2019-06-26T01:03:55.060Z,23.80
2019-06-26T01:06:45.245Z,23.50
2019-06-26T01:09:17.377Z,26.09
2019-06-26T01:11:49.425Z,26.76
2019-06-26T01:14:21.401Z,25.80
2019-06-26T01:16:53.383Z,24.95
2019-06-26T01:19:25.423Z,24.39
2019-06-26T01:21:57.317Z,23.95
2019-06-26T01:24:29.393Z,23.59
2019-06-26T01:27:01.306Z,25.72
2019-06-26T01:29:33.270Z,28.25
2019-06-26T01:32:06.725Z,27.87
2019-06-26T01:34:38.858Z,26.62
2019-06-26T01:37:11.825Z,25.69
2019-06-26T01:39:44.584Z,25.03
2019-06-26T01:42:16.499Z,24.52
2019-06-26T01:44:48.535Z,24.11
2019-06-26T01:47:20.442Z,23.76
2019-06-26T01:49:52.424Z,23.44
2019-06-26T01:52:24.250Z,25.95
2019-06-26T01:54:56.272Z,26.69
2019-06-26T01:57:28.281Z,25.69
2019-06-26T02:00:00.283Z,24.82
2019-06-26T02:02:32.353Z,24.21
2019-06-26T02:05:06.395Z,23.78
2019-06-26T02:07:38.374Z,23.39
2019-06-26T02:10:10.931Z,25.60
2019-06-26T02:12:43.146Z,26.27
2019-06-26T02:15:16.218Z,25.32
2019-06-26T02:17:48.203Z,24.52
2019-06-26T02:20:20.285Z,23.93
2019-06-26T02:22:52.589Z,23.50
2019-06-26T02:25:24.487Z,25.39
2019-06-26T02:27:56.842Z,27.82
2019-06-26T02:30:28.851Z,27.51
2019-06-26T02:33:00.991Z,26.27
2019-06-26T02:35:33.125Z,25.34
2019-06-26T02:38:05.063Z,24.65
2019-06-26T02:40:37.214Z,24.16
2019-06-26T02:43:09.736Z,23.75
2019-06-26T02:45:42.016Z,23.39
2019-06-26T02:48:14.089Z,23.07
2019-06-26T02:50:46.128Z,25.30
2019-06-26T02:53:18.195Z,27.78
2019-06-26T02:55:50.231Z,27.44
2019-06-26T02:58:22.146Z,26.14
2019-06-26T03:00:54.342Z,25.21
2019-06-26T03:03:26.488Z,24.52
2019-06-26T03:05:58.415Z,24.01
2019-06-26T03:08:30.388Z,23.60
2019-06-26T03:11:02.484Z,23.29
2019-06-26T03:13:34.304Z,25.47
2019-06-26T03:16:06.486Z,27.89
2019-06-26T03:18:38.648Z,27.58
2019-06-26T03:21:10.680Z,26.28
2019-06-26T03:23:42.687Z,25.37
2019-06-26T03:26:14.665Z,24.75
2019-06-26T03:28:46.671Z,24.25
2019-06-26T03:31:18.725Z,23.86
2019-06-26T03:33:50.816Z,23.53
2019-06-26T03:36:23.002Z,25.69
2019-06-26T03:38:55.035Z,26.42
2019-06-26T03:41:27.147Z,25.49
2019-06-26T03:43:58.990Z,24.72
2019-06-26T03:46:31.095Z,24.14
2019-06-26T03:49:03.000Z,23.76
2019-06-26T03:51:35.066Z,23.45
2019-06-26T03:54:07.140Z,25.66
2019-06-26T03:56:39.098Z,26.42
2019-06-26T03:59:11.105Z,25.53
2019-06-26T04:01:43.316Z,24.79
2019-06-26T04:04:15.392Z,24.25
2019-06-26T04:06:47.393Z,23.89
2019-06-26T04:09:19.416Z,26.01
2019-06-26T04:11:51.422Z,28.38
2019-06-26T04:14:23.382Z,28.07
2019-06-26T04:16:55.601Z,26.90
2019-06-26T04:19:27.697Z,26.08
2019-06-26T04:21:59.739Z,25.50
2019-06-26T04:24:31.733Z,25.06
2019-06-26T04:27:03.860Z,24.75
2019-06-26T04:29:35.854Z,24.47
2019-06-26T04:32:09.085Z,26.65
2019-06-26T04:34:40.838Z,29.20
2019-06-26T04:37:12.813Z,28.73
2019-06-26T04:39:44.766Z,27.58
2019-06-26T04:42:16.746Z,26.78
2019-06-26T04:44:48.752Z,26.27
2019-06-26T04:47:20.585Z,25.87
2019-06-26T04:49:52.588Z,25.60
2019-06-26T04:52:24.517Z,25.34
2019-06-26T04:54:56.679Z,25.16
2019-06-26T04:57:28.579Z,24.99
2019-06-26T05:00:00.490Z,24.86
2019-06-26T05:02:32.465Z,27.11
2019-06-26T05:05:06.556Z,27.96
2019-06-26T05:07:38.748Z,27.20
2019-06-26T05:10:11.098Z,26.59
2019-06-26T05:12:43.159Z,26.21
2019-06-26T05:15:15.522Z,25.95
2019-06-26T05:17:47.492Z,25.80
2019-06-26T05:20:19.526Z,25.67
2019-06-26T05:22:51.825Z,25.56
2019-06-26T05:25:23.632Z,27.91
2019-06-26T05:27:55.846Z,28.74
2019-06-26T05:30:27.986Z,28.01
2019-06-26T05:33:00.219Z,27.43
2019-06-26T05:35:35.023Z,27.09
2019-06-26T05:38:06.153Z,26.83
2019-06-26T05:40:38.207Z,26.69
2019-06-26T05:43:10.181Z,26.58
2019-06-26T05:45:42.132Z,26.52
2019-06-26T05:48:14.287Z,26.44
2019-06-26T05:50:46.407Z,26.41
2019-06-26T05:53:18.379Z,26.36
2019-06-26T05:55:50.332Z,28.76
2019-06-26T05:58:22.348Z,29.62
2019-06-26T06:00:55.397Z,28.97
2019-06-26T06:03:27.450Z,28.42
2019-06-26T06:05:59.486Z,28.13
2019-06-26T06:08:31.464Z,27.93
2019-06-26T06:11:03.549Z,27.84
2019-06-26T06:13:35.575Z,27.74
2019-06-26T06:16:07.548Z,27.69
2019-06-26T06:18:39.588Z,27.67
2019-06-26T06:21:11.499Z,27.60
2019-06-26T06:23:43.335Z,27.60
2019-06-26T06:26:15.493Z,27.60
2019-06-26T06:28:47.566Z,27.58
2019-06-26T06:31:20.831Z,27.57
2019-06-26T06:33:52.841Z,27.61
2019-06-26T06:36:25.979Z,27.64
2019-06-26T06:38:57.874Z,27.65
2019-06-26T06:41:29.807Z,27.67
2019-06-26T06:44:01.813Z,27.69
2019-06-26T06:46:33.956Z,27.72
2019-06-26T06:49:06.032Z,27.74
2019-06-26T06:51:38.311Z,27.78
2019-06-26T06:54:10.366Z,27.85
2019-06-26T06:56:42.533Z,27.88
2019-06-26T06:59:14.498Z,27.93
2019-06-26T07:01:46.457Z,27.99
2019-06-26T07:04:18.543Z,28.02
2019-06-26T07:06:50.438Z,28.07
2019-06-26T07:09:24.855Z,28.15
2019-06-26T07:11:56.897Z,28.23
2019-06-26T07:14:29.037Z,28.33
2019-06-26T07:17:01.601Z,28.38
2019-06-26T07:19:33.829Z,28.46
2019-06-26T07:22:07.549Z,28.53
2019-06-26T07:24:39.539Z,28.60
2019-06-26T07:27:11.547Z,28.67
2019-06-26T07:29:43.379Z,28.74
2019-06-26T07:32:15.413Z,28.83
2019-06-26T07:34:47.822Z,28.90
2019-06-26T07:37:20.330Z,28.95
2019-06-26T07:39:52.377Z,29.04
2019-06-26T07:42:24.402Z,29.11
2019-06-26T07:44:57.687Z,29.14
2019-06-26T07:47:42.415Z,29.21
2019-06-26T07:50:03.394Z,29.31
2019-06-26T07:52:35.823Z,29.37
2019-06-26T07:55:11.772Z,29.38
2019-06-26T07:57:43.247Z,29.48
2019-06-26T08:00:16.192Z,29.54
2019-06-26T08:02:48.746Z,29.61
2019-06-26T08:05:21.053Z,29.68
2019-06-26T08:07:58.536Z,29.73
2019-06-26T08:10:33.558Z,29.79
2019-06-26T08:13:05.666Z,29.83
2019-06-26T08:15:37.634Z,29.92
2019-06-26T08:18:09.509Z,29.96
2019-06-26T08:20:55.491Z,30.05
2019-06-26T08:23:15.145Z,30.15
2019-06-26T08:25:47.189Z,30.22
2019-06-26T08:28:19.255Z,30.27
2019-06-26T08:30:51.381Z,30.33
2019-06-26T08:33:23.357Z,30.40
2019-06-26T08:35:55.474Z,30.48
2019-06-26T08:38:27.358Z,30.56
2019-06-26T08:40:59.357Z,30.64
2019-06-26T08:43:31.668Z,30.70
2019-06-26T08:46:03.605Z,30.77
2019-06-26T08:48:40.027Z,30.84
2019-06-26T08:51:09.264Z,30.92
2019-06-26T08:53:41.540Z,30.99
2019-06-26T08:56:13.612Z,31.09
2019-06-26T08:58:45.507Z,31.15
2019-06-26T09:01:17.538Z,31.25
2019-06-26T09:03:49.494Z,31.33
2019-06-26T09:06:21.560Z,31.42
2019-06-26T09:08:53.548Z,31.46
2019-06-26T09:11:25.685Z,31.56
2019-06-26T09:13:58.142Z,31.66
2019-06-26T09:16:30.236Z,31.75
2019-06-26T09:19:02.270Z,31.83
2019-06-26T09:21:42.526Z,31.87
2019-06-26T09:24:15.015Z,31.97
2019-06-26T09:26:46.983Z,32.04
2019-06-26T09:29:19.235Z,32.07
2019-06-26T09:31:51.207Z,32.14
2019-06-26T09:34:23.441Z,32.23
2019-06-26T09:36:55.470Z,32.28
2019-06-26T09:39:27.720Z,32.37
2019-06-26T09:41:59.761Z,32.41
2019-06-26T09:44:31.643Z,32.48
2019-06-26T09:47:03.725Z,32.58
2019-06-26T09:49:35.746Z,32.64
2019-06-26T09:52:07.715Z,32.69
2019-06-26T09:54:39.832Z,32.78
2019-06-26T09:57:11.824Z,32.85
2019-06-26T09:59:43.767Z,32.94
2019-06-26T10:02:15.912Z,32.99
2019-06-26T10:04:47.928Z,33.08
2019-06-26T10:07:20.004Z,33.13
2019-06-26T10:09:52.001Z,33.20
2019-06-26T10:12:23.969Z,33.29
2019-06-26T10:14:55.891Z,33.37
2019-06-26T10:17:27.834Z,33.45
2019-06-26T10:19:59.771Z,33.56
2019-06-26T10:22:31.734Z,33.63
2019-06-26T10:25:04.416Z,33.71
2019-06-26T10:27:36.550Z,33.83
2019-06-26T10:30:09.476Z,33.87
2019-06-26T10:32:41.423Z,34.01
2019-06-26T10:35:13.969Z,34.08
2019-06-26T10:37:45.998Z,34.20
2019-06-26T10:40:18.722Z,34.31
2019-06-26T10:42:51.132Z,34.38
2019-06-26T10:45:23.299Z,34.47
2019-06-26T10:47:55.399Z,34.58
2019-06-26T10:50:27.398Z,34.71
2019-06-26T10:53:00.281Z,34.78
2019-06-26T10:55:32.315Z,34.85
2019-06-26T10:58:04.329Z,34.95
2019-06-26T11:00:36.592Z,35.03
2019-06-26T11:03:08.597Z,35.13
2019-06-26T11:05:41.425Z,35.22
2019-06-26T11:08:13.381Z,35.29
2019-06-26T11:10:45.352Z,35.42
2019-06-26T11:13:17.367Z,35.47
2019-06-26T11:15:49.637Z,35.59
2019-06-26T11:18:21.508Z,35.67
2019-06-26T11:20:53.414Z,35.74
2019-06-26T11:23:25.426Z,35.83
2019-06-26T11:25:57.420Z,35.88
2019-06-26T11:28:29.417Z,35.98
2019-06-26T11:31:01.302Z,36.10
2019-06-26T11:33:33.268Z,36.17
2019-06-26T11:36:05.234Z,36.24
2019-06-26T11:38:37.254Z,36.31
2019-06-26T11:41:09.225Z,36.36
2019-06-26T11:43:41.173Z,36.46
2019-06-26T11:46:13.613Z,36.52
2019-06-26T11:48:45.819Z,36.59
2019-06-26T11:51:19.057Z,36.69
2019-06-26T11:53:51.152Z,36.71
2019-06-26T11:56:23.281Z,36.79
2019-06-26T11:58:56.934Z,36.86
2019-06-26T12:01:29.361Z,36.95
2019-06-26T12:04:01.316Z,36.97
2019-06-26T12:06:33.288Z,37.10
2019-06-26T12:09:08.961Z,37.15
2019-06-26T12:11:41.179Z,37.26
2019-06-26T12:14:13.302Z,37.36
2019-06-26T12:16:45.534Z,37.44
2019-06-26T12:19:20.892Z,37.47
2019-06-26T12:21:51.117Z,37.53
2019-06-26T12:24:26.334Z,37.56
2019-06-26T12:26:56.750Z,37.57
2019-06-26T12:29:31.992Z,37.59
2019-06-26T12:32:02.509Z,37.59
2019-06-26T12:34:34.384Z,37.66
2019-06-26T12:37:06.418Z,37.68
2019-06-26T12:39:38.354Z,37.71
2019-06-26T12:42:10.320Z,37.74
2019-06-26T12:44:42.272Z,37.76
2019-06-26T12:47:14.324Z,37.81
2019-06-26T12:49:46.198Z,37.88
2019-06-26T12:52:18.345Z,37.97
2019-06-26T12:54:50.293Z,38.03
2019-06-26T12:57:22.258Z,38.08
2019-06-26T12:59:57.721Z,38.15
2019-06-26T13:02:27.797Z,38.24
2019-06-26T13:04:59.744Z,38.29
2019-06-26T13:07:32.408Z,38.35
2019-06-26T13:10:07.617Z,38.38
2019-06-26T13:12:39.825Z,38.45
2019-06-26T13:15:12.973Z,38.51
2019-06-26T13:17:45.114Z,38.55
2019-06-26T13:20:17.141Z,38.61
2019-06-26T13:22:49.742Z,38.65
2019-06-26T13:25:21.757Z,38.66
2019-06-26T13:27:55.135Z,38.73
2019-06-26T13:30:34.605Z,38.75
2019-06-26T13:33:06.638Z,38.83
2019-06-26T13:35:38.651Z,38.83
2019-06-26T13:38:10.683Z,38.89
2019-06-26T13:40:42.692Z,38.95
2019-06-26T13:43:14.600Z,38.97
2019-06-26T13:45:46.625Z,38.96
2019-06-26T13:48:18.596Z,38.99
2019-06-26T13:50:50.854Z,38.99
2019-06-26T13:53:25.756Z,39.02
2019-06-26T13:55:57.715Z,39.05
2019-06-26T13:58:29.744Z,39.10
2019-06-26T14:01:01.708Z,39.12
2019-06-26T14:03:33.744Z,39.14
2019-06-26T14:06:05.627Z,39.19
2019-06-26T14:08:37.599Z,39.23
2019-06-26T14:11:10.136Z,39.26
2019-06-26T14:13:42.289Z,39.33
2019-06-26T14:16:14.182Z,39.34
2019-06-26T14:18:46.183Z,39.36
2019-06-26T14:21:25.568Z,39.36
2019-06-26T14:23:51.883Z,39.43
2019-06-26T14:26:23.893Z,39.47
2019-06-26T14:28:56.161Z,39.56
2019-06-26T14:31:28.487Z,39.57
2019-06-26T14:34:00.451Z,39.65
2019-06-26T14:36:33.667Z,39.68
2019-06-26T14:39:07.301Z,39.75
2019-06-26T14:41:39.402Z,39.83
2019-06-26T14:44:11.434Z,39.81
2019-06-26T14:46:43.388Z,39.84
2019-06-26T14:49:16.414Z,39.87
2019-06-26T14:51:49.364Z,39.90
2019-06-26T14:54:21.393Z,39.87
2019-06-26T14:56:53.280Z,39.84
2019-06-26T14:59:25.302Z,39.84
2019-06-26T15:01:57.167Z,39.84
2019-06-26T15:04:29.211Z,39.83
2019-06-26T15:07:01.227Z,39.81
2019-06-26T15:09:33.198Z,39.74
2019-06-26T15:12:05.144Z,39.71
2019-06-26T15:14:37.114Z,39.72
2019-06-26T15:17:09.121Z,39.77
2019-06-26T15:19:41.207Z,39.80
2019-06-26T15:22:14.139Z,39.86
2019-06-26T15:24:46.113Z,39.92
2019-06-26T15:27:17.993Z,39.99
2019-06-26T15:29:49.951Z,40.14
2019-06-26T15:32:21.896Z,40.53
2019-06-26T15:34:53.786Z,40.99
2019-06-26T15:40:02.527Z,41.21
2019-06-26T15:42:34.545Z,41.40
2019-06-26T15:45:09.550Z,41.41
2019-06-26T15:47:41.554Z,41.71
2019-06-26T15:50:14.820Z,42.12
2019-06-26T15:52:46.763Z,42.62
2019-06-26T15:55:18.722Z,43.11
2019-06-26T15:57:50.656Z,43.52
2019-06-26T16:00:22.777Z,43.86
2019-06-26T16:02:55.215Z,44.16
2019-06-26T16:05:27.246Z,44.53
2019-06-26T16:07:59.179Z,44.86
2019-06-26T16:10:34.456Z,45.04
2019-06-26T16:13:05.150Z,45.18
2019-06-26T16:15:37.601Z,45.33
2019-06-26T16:18:09.377Z,45.52
2019-06-26T16:20:41.348Z,45.66
2019-06-26T16:23:13.800Z,45.84
2019-06-26T16:25:45.781Z,45.98
2019-06-26T16:28:17.871Z,46.15
2019-06-26T16:30:49.765Z,46.27
2019-06-26T16:33:21.772Z,46.42
2019-06-26T16:35:53.807Z,46.55
2019-06-26T16:38:25.764Z,46.57
2019-06-26T16:40:57.812Z,46.66
2019-06-26T16:43:29.624Z,46.76
2019-06-26T16:46:01.714Z,46.73
2019-06-26T16:48:33.732Z,46.45
2019-06-26T16:51:05.791Z,46.09
2019-06-26T16:53:37.893Z,45.86
2019-06-26T16:56:09.992Z,45.79
2019-06-26T16:58:41.876Z,45.78
2019-06-26T17:01:13.768Z,45.81
2019-06-26T17:03:45.792Z,45.84
2019-06-26T17:06:17.823Z,45.78
2019-06-26T17:08:50.103Z,45.72
2019-06-26T17:11:22.165Z,45.65
2019-06-26T17:13:54.050Z,45.57
2019-06-26T17:16:25.941Z,45.38
2019-06-26T17:18:57.912Z,45.03
2019-06-26T17:21:30.058Z,44.63
2019-06-26T17:24:02.000Z,44.27
2019-06-26T17:26:33.887Z,43.96
2019-06-26T17:29:05.835Z,43.56
2019-06-26T17:31:37.887Z,43.21
2019-06-26T17:34:09.844Z,42.92
2019-06-26T17:36:41.813Z,42.66
2019-06-26T17:39:13.795Z,42.39
2019-06-26T17:41:45.964Z,42.11
2019-06-26T17:44:18.825Z,41.77
2019-06-26T17:46:50.779Z,41.37
2019-06-26T17:49:22.757Z,41.00
2019-06-26T17:51:54.734Z,40.65
2019-06-26T17:54:29.652Z,40.29
2019-06-26T17:57:01.603Z,39.97
2019-06-26T17:59:33.759Z,39.61
2019-06-26T18:02:06.943Z,39.31
2019-06-26T18:04:39.011Z,39.06
2019-06-26T18:07:10.947Z,38.80
2019-06-26T18:09:42.901Z,38.56
2019-06-26T18:12:15.255Z,38.32
2019-06-26T18:14:47.109Z,38.14
2019-06-26T18:17:22.425Z,37.91
2019-06-26T18:19:53.991Z,37.74
2019-06-26T18:22:26.112Z,37.56
2019-06-26T18:24:58.128Z,37.34
2019-06-26T18:27:30.166Z,37.17
2019-06-26T18:30:03.151Z,36.99
2019-06-26T18:32:35.326Z,36.82
2019-06-26T18:35:08.544Z,36.62
2019-06-26T18:37:40.433Z,36.46
2019-06-26T18:40:12.844Z,36.25
2019-06-26T18:42:45.906Z,36.08
2019-06-26T18:45:18.341Z,35.90
2019-06-26T18:47:50.386Z,35.70
2019-06-26T18:50:22.524Z,35.53
2019-06-26T18:52:54.562Z,35.34
2019-06-26T18:55:26.425Z,35.15
2019-06-26T18:57:58.303Z,34.96
2019-06-26T19:00:30.179Z,34.79
2019-06-26T19:03:02.161Z,34.59
2019-06-26T19:05:34.568Z,34.41
2019-06-26T19:08:06.672Z,34.22
2019-06-26T19:10:38.700Z,34.01
2019-06-26T19:13:10.881Z,33.83
2019-06-26T19:15:42.975Z,33.66
2019-06-26T19:18:15.437Z,33.49
2019-06-26T19:20:47.380Z,33.30
2019-06-26T19:23:20.482Z,33.12
2019-06-26T19:25:52.578Z,32.98
2019-06-26T19:28:24.554Z,32.83
2019-06-26T19:30:56.765Z,32.69
2019-06-26T19:33:28.866Z,32.55
2019-06-26T19:36:01.054Z,32.42
2019-06-26T19:38:33.065Z,32.31
2019-06-26T19:41:08.523Z,32.20
2019-06-26T19:43:40.405Z,32.13
2019-06-26T19:46:12.355Z,32.00
2019-06-26T19:48:44.236Z,31.93
2019-06-26T19:51:16.344Z,31.87
2019-06-26T19:53:48.315Z,31.77
2019-06-26T19:56:20.336Z,31.70
2019-06-26T19:58:52.290Z,31.60
2019-06-26T20:01:24.776Z,31.56
2019-06-26T20:03:57.007Z,31.50
2019-06-26T20:06:29.097Z,31.43
2019-06-26T20:09:04.500Z,31.33
2019-06-26T20:11:36.674Z,31.26
2019-06-26T20:14:08.808Z,31.16
2019-06-26T20:16:40.962Z,31.05
2019-06-26T20:19:12.966Z,30.97
2019-06-26T20:21:45.159Z,30.85
2019-06-26T20:24:17.127Z,30.79
2019-06-26T20:26:49.124Z,30.70
2019-06-26T20:29:21.124Z,30.61
2019-06-26T20:31:53.040Z,30.48
2019-06-26T20:34:25.699Z,30.38
2019-06-26T20:36:57.719Z,30.31
2019-06-26T20:39:29.987Z,30.22
2019-06-26T20:42:03.063Z,30.15
2019-06-26T20:44:35.827Z,30.05
2019-06-26T20:47:07.966Z,29.95
2019-06-26T20:49:52.773Z,29.89
2019-06-26T20:52:16.849Z,29.79
2019-06-26T20:55:01.020Z,29.69
2019-06-26T20:57:26.286Z,29.62
2019-06-26T20:59:58.285Z,29.54
2019-06-26T21:02:30.298Z,29.46
2019-06-26T21:05:02.350Z,29.38
2019-06-26T21:07:34.424Z,29.31
2019-06-26T21:10:06.862Z,29.25
2019-06-26T21:12:38.756Z,29.14
2019-06-26T21:15:10.846Z,29.10
2019-06-26T21:17:42.860Z,29.00
2019-06-26T21:20:16.167Z,28.91
2019-06-26T21:22:48.516Z,28.83
2019-06-26T21:25:20.596Z,28.73
2019-06-26T21:27:52.532Z,28.66
2019-06-26T21:30:24.458Z,28.59
2019-06-26T21:32:56.599Z,28.53
2019-06-26T21:35:28.526Z,28.39
2019-06-26T21:38:00.395Z,28.30
2019-06-26T21:40:32.339Z,28.22
2019-06-26T21:43:04.277Z,28.13
2019-06-26T21:45:36.201Z,28.08
2019-06-26T21:48:08.139Z,27.93
2019-06-26T21:50:40.078Z,27.85
2019-06-26T21:53:12.013Z,27.77
2019-06-26T21:55:44.427Z,27.69
2019-06-26T21:58:33.991Z,27.60
2019-06-26T22:01:23.948Z,27.48
2019-06-26T22:04:14.063Z,27.38
2019-06-26T22:06:47.727Z,27.28
2019-06-26T22:09:37.476Z,27.21
2019-06-26T22:12:09.622Z,27.13
2019-06-26T22:14:41.713Z,27.06
2019-06-26T22:17:13.705Z,26.93
2019-06-26T22:19:45.802Z,26.86
2019-06-26T22:22:17.857Z,26.81
2019-06-26T22:24:49.868Z,26.73
2019-06-26T22:27:21.786Z,26.65
2019-06-26T22:29:54.124Z,26.56
2019-06-26T22:32:26.190Z,26.49
2019-06-26T22:34:58.483Z,26.44
2019-06-26T22:37:33.500Z,26.36
2019-06-26T22:40:07.183Z,26.30
2019-06-26T22:42:39.331Z,26.23
2019-06-26T22:45:11.713Z,26.14
2019-06-26T22:47:44.076Z,26.09
2019-06-26T22:50:16.227Z,26.05
2019-06-26T22:52:49.198Z,25.95
2019-06-26T22:55:21.272Z,25.91
2019-06-26T22:57:53.286Z,25.83
2019-06-26T23:00:25.682Z,25.76
2019-06-26T23:02:57.803Z,25.64
2019-06-26T23:05:29.739Z,25.60
2019-06-26T23:08:01.670Z,25.52
2019-06-26T23:10:33.781Z,25.46
2019-06-26T23:13:09.370Z,25.39
2019-06-26T23:15:39.606Z,25.39
2019-06-26T23:18:12.683Z,25.33
2019-06-26T23:20:44.643Z,25.25
2019-06-26T23:23:16.642Z,25.22
2019-06-26T23:25:48.506Z,25.18
2019-06-26T23:28:20.584Z,25.15
2019-06-26T23:30:52.517Z,25.09
2019-06-26T23:33:24.388Z,25.01
2019-06-26T23:35:56.422Z,24.95
2019-06-26T23:38:28.306Z,24.92
2019-06-26T23:41:00.306Z,24.88
2019-06-26T23:43:32.438Z,24.81
2019-06-26T23:46:04.506Z,24.77
2019-06-26T23:48:36.624Z,24.72
2019-06-26T23:51:08.479Z,24.67
2019-06-26T23:53:40.383Z,24.62
2019-06-26T23:56:12.251Z,24.55
2019-06-26T23:58:44.160Z,24.48
